McAlester, OK

3:55 AM CDT on May 06, 2015 (GMT -0500)
McAlester Regional | | Change Station
CLOSE
Current Station
Airport
Location: McAlester,
Elevation: 768 ft
Nearby Weather Stations

Elev 768 ft 34.88 °N, 95.78 °W | Updated 1 hour ago

Rain
Rain
68 °F
Feels Like 68 °F
N
12
Wind Variable Wind from SSE
Gusts 18 mph

Today
High -- | Low -- °F
--% Chance of Precip.
Yesterday
High -- | Low -- °F
Precip. -- in
6:27 AM 8:12 PM
Waning Gibbous, 95% visible
Pressure 29.95 in
Visibility 8.0 miles
Clouds Few 4300 ft
Mostly Cloudy 11000 ft
Dew Point 64 °F
Humidity 87%
Rainfall 0.11 in
Snow Depth Not available.
UV 0 out of 12
Pollen 8.60 out of 12
Air Quality Not available.
Flu Activity Local Activity
METAR KMLC 060753Z AUTO 15010G16KT 110V190 8SM -RA FEW043 BKN110 20/18 A2997 RMK AO2 RAB04 SLP140 P0011 T02000178

More Conditions Fewer Conditions

Pressure 29.95 in
Visibility 8.0 miles
Clouds Few 4300 ft
Mostly Cloudy 11000 ft
Dew Point 64 °F
Humidity 87%
Rainfall 0.11 in
Snow Depth Not available.
UV 0 out of 12
Pollen 8.60 out of 12
Air Quality Not available.
Flu Activity Local Activity
METAR KMLC 060753Z AUTO 15010G16KT 110V190 8SM -RA FEW043 BKN110 20/18 A2997 RMK AO2 RAB04 SLP140 P0011 T02000178

More Conditions Fewer Conditions

10-Day Weather Forecast

Almanac

Astronomy

May. 06, 2015 Rise Set
Actual Time
Civil Twilight
Nautical Twilight
Astronomical Twilight
Moon
Length of Visible Light
Length of Day
Tomorrow will be .
, % of the Moon is Illuminated

Today's Extremes

State Highs State Lows

Community

WunderPhotos

Upload Photos

1,818,857 photos uploaded!

WunderBlogs® & News

Nearby

Air Quality

  Air Quality AQ Index Pollutant
Not available.

Snow Depth

Station Depth Elevation

Earthquake Activity

City Distance Mag. Time & Date
Minimum magnitude displayed is 2.5.

Coastal Water Temperatures

Place Temperature

Stations

Nearby Weather Stations

Station Location Temp. Windchill Dew Point Humidity Wind Precip. Elev Updated Type